Time;durP1;ratioP1;P1;durP2;ratioP2;P2;SDS_P1;SDS_P2;PMS_P1;PMS_P2;Temp;Humidity;BMP_temperature;BMP_pressure;BME280_temperature;BME280_humidity;BME280_pressure;Samples;Min_cycle;Max_cycle;Signal;HPM_P1;HPM_P2
2024/01/08 00:00:08;;;;;;;17.83;3.30;;;0.30;1.00;;;;;;5017478;28;20170;-81
2024/01/08 00:02:33;;;;;;;18.83;3.45;;;0.20;1.00;;;;;;5035398;28;20166;-82
2024/01/08 00:04:59;;;;;;;18.53;3.40;;;0.10;1.00;;;;;;5035463;28;20204;-82
2024/01/08 00:07:25;;;;;;;21.03;3.40;;;0.20;1.00;;;;;;5017192;28;20186;-81
2024/01/08 00:09:51;;;;;;;19.77;3.90;;;0.20;1.00;;;;;;5035553;28;20339;-81
2024/01/08 00:12:17;;;;;;;18.47;4.27;;;0.10;1.00;;;;;;5035494;28;20651;-82
2024/01/08 00:14:42;;;;;;;24.83;4.00;;;0.20;1.00;;;;;;5017288;28;20165;-82
2024/01/08 00:17:08;;;;;;;19.57;3.93;;;0.30;1.00;;;;;;5035394;28;20196;-81
2024/01/08 00:19:33;;;;;;;18.67;3.83;;;0.20;1.00;;;;;;5035476;28;20162;-81
2024/01/08 00:21:59;;;;;;;17.43;3.07;;;0.20;1.00;;;;;;5035320;28;20162;-82
2024/01/08 00:24:25;;;;;;;19.57;4.00;;;0.20;1.00;;;;;;5017476;28;20178;-81
2024/01/08 00:26:50;;;;;;;18.17;3.90;;;0.20;1.00;;;;;;5035382;28;20244;-82
2024/01/08 00:29:16;;;;;;;20.00;3.80;;;0.30;1.00;;;;;;5035121;28;20538;-81
2024/01/08 00:31:42;;;;;;;17.90;3.27;;;0.10;1.00;;;;;;5035001;28;20166;-82
2024/01/08 00:34:08;;;;;;;17.03;2.70;;;0.20;1.00;;;;;;5035187;28;20688;-81
2024/01/08 00:36:36;;;;;;;19.52;4.10;;;0.10;1.00;;;;;;5035480;28;20182;-82
2024/01/08 00:39:02;;;;;;;18.13;3.30;;;0.00;1.00;;;;;;5017637;28;20197;-82
2024/01/08 00:41:28;;;;;;;18.47;4.10;;;0.00;1.00;;;;;;5035058;28;20169;-81
2024/01/08 00:43:53;;;;;;;21.67;4.30;;;0.10;1.00;;;;;;5035172;28;20162;-81
2024/01/08 00:46:19;;;;;;;19.47;5.23;;;0.00;1.00;;;;;;5035103;28;20610;-82
2024/01/08 00:48:45;;;;;;;19.60;4.23;;;0.10;1.00;;;;;;5017793;28;20193;-82
2024/01/08 00:51:10;;;;;;;18.77;4.07;;;0.10;1.00;;;;;;5034787;28;20162;-81
2024/01/08 00:53:36;;;;;;;19.07;4.37;;;0.10;1.00;;;;;;5034915;28;20526;-82
2024/01/08 00:56:01;;;;;;;19.83;4.87;;;0.00;1.00;;;;;;5017308;28;20266;-81
2024/01/08 00:58:28;;;;;;;19.17;4.03;;;0.10;1.00;;;;;;5035314;28;20201;-82
2024/01/08 01:00:54;;;;;;;20.20;4.30;;;0.20;1.00;;;;;;5017026;28;20174;-82
2024/01/08 01:03:19;;;;;;;19.03;4.47;;;0.40;1.00;;;;;;5035331;28;20172;-82
2024/01/08 01:05:45;;;;;;;19.20;3.80;;;0.30;1.00;;;;;;5035074;28;20456;-82
2024/01/08 01:08:10;;;;;;;18.40;4.10;;;0.40;1.00;;;;;;5035549;28;20329;-82
2024/01/08 01:10:36;;;;;;;20.60;4.57;;;0.40;1.00;;;;;;5035572;28;20162;-82
2024/01/08 01:13:02;;;;;;;21.37;5.00;;;0.40;1.00;;;;;;5035363;28;20154;-82
2024/01/08 01:15:27;;;;;;;20.20;4.37;;;0.40;1.00;;;;;;5035312;28;20174;-81
2024/01/08 01:17:53;;;;;;;23.67;5.33;;;0.20;1.00;;;;;;5035418;28;20197;-82
2024/01/08 01:20:19;;;;;;;19.00;4.17;;;0.30;1.00;;;;;;5034634;28;20228;-81
2024/01/08 01:22:44;;;;;;;20.70;3.80;;;0.30;1.00;;;;;;5034580;28;20176;-82
2024/01/08 01:25:10;;;;;;;19.50;4.10;;;0.30;1.00;;;;;;5035162;28;20198;-82
2024/01/08 01:27:36;;;;;;;21.80;4.70;;;0.30;1.00;;;;;;5038358;28;20217;-82
2024/01/08 01:30:03;;;;;;;21.17;4.73;;;0.40;1.00;;;;;;5020573;28;20834;-82
2024/01/08 01:32:29;;;;;;;19.52;4.80;;;0.50;1.00;;;;;;5020417;28;20281;-81
2024/01/08 01:34:55;;;;;;;19.10;5.00;;;0.50;1.00;;;;;;5038168;28;20216;-82
2024/01/08 01:37:20;;;;;;;20.53;4.50;;;0.40;1.00;;;;;;5020433;28;20253;-82
2024/01/08 01:39:46;;;;;;;20.40;4.20;;;0.40;1.00;;;;;;5021005;28;20228;-82
2024/01/08 01:42:12;;;;;;;21.10;5.23;;;0.40;1.00;;;;;;5038346;28;20220;-80
2024/01/08 01:44:38;;;;;;;22.00;4.20;;;0.40;1.00;;;;;;5037874;28;20245;-82
2024/01/08 01:47:03;;;;;;;21.50;4.47;;;0.30;1.00;;;;;;5037769;28;20444;-82
2024/01/08 01:49:29;;;;;;;20.13;4.87;;;0.40;1.00;;;;;;5038186;28;20189;-82
2024/01/08 01:51:56;;;;;;;21.80;3.80;;;0.30;1.00;;;;;;5037707;28;20400;-81
2024/01/08 01:54:23;;;;;;;20.00;3.90;;;0.40;1.00;;;;;;5037658;28;20411;-82
2024/01/08 01:56:53;;;;;;;18.23;4.65;;;0.30;1.00;;;;;;5020401;28;20189;-82
2024/01/08 01:59:20;;;;;;;20.58;4.80;;;0.30;1.00;;;;;;5037944;28;20173;-82
2024/01/08 02:01:46;;;;;;;20.70;5.20;;;0.40;1.00;;;;;;5038188;28;20170;-81
2024/01/08 02:04:13;;;;;;;20.30;4.70;;;0.30;1.00;;;;;;5037860;28;20181;-81
2024/01/08 02:06:40;;;;;;;19.58;4.88;;;0.30;1.00;;;;;;5037185;28;20910;-81
2024/01/08 02:09:10;;;;;;;20.98;5.65;;;0.20;1.00;;;;;;5037531;28;20165;-81
2024/01/08 02:11:35;;;;;;;20.25;4.65;;;0.20;1.00;;;;;;5037221;28;20165;-81
2024/01/08 02:14:01;;;;;;;23.50;5.67;;;0.20;1.00;;;;;;5019478;28;20196;-81
2024/01/08 02:16:27;;;;;;;19.73;5.07;;;0.20;1.00;;;;;;5037635;28;20190;-81
2024/01/08 02:18:53;;;;;;;18.97;4.60;;;0.20;1.00;;;;;;5037045;28;20170;-81
2024/01/08 02:21:18;;;;;;;21.00;4.63;;;0.10;1.00;;;;;;5019346;28;20197;-82
2024/01/08 02:23:45;;;;;;;19.83;4.17;;;0.20;1.00;;;;;;5037109;28;20635;-81
2024/01/08 02:26:11;;;;;;;19.70;4.30;;;0.30;1.00;;;;;;5036834;28;20204;-81
2024/01/08 02:28:37;;;;;;;19.83;4.95;;;0.20;1.00;;;;;;5037054;28;20237;-81
2024/01/08 02:31:03;;;;;;;19.33;5.10;;;0.20;1.00;;;;;;5037527;28;20162;-82
2024/01/08 02:33:28;;;;;;;19.17;4.57;;;0.20;1.00;;;;;;5036948;28;20241;-80
2024/01/08 02:35:54;;;;;;;17.97;3.70;;;0.30;1.00;;;;;;5038126;28;20186;-81
2024/01/08 02:38:20;;;;;;;20.70;4.93;;;0.30;1.00;;;;;;5036282;28;20558;-81
2024/01/08 02:40:45;;;;;;;19.57;4.33;;;0.20;1.00;;;;;;5036882;28;20165;-80
2024/01/08 02:43:11;;;;;;;18.53;3.90;;;0.10;1.00;;;;;;5037135;28;20169;-82
2024/01/08 02:45:36;;;;;;;20.03;4.30;;;0.10;1.00;;;;;;5036422;28;20220;-82
2024/01/08 02:48:02;;;;;;;25.10;5.23;;;0.10;1.00;;;;;;5036436;28;20159;-81
2024/01/08 02:50:28;;;;;;;19.27;4.80;;;0.10;1.00;;;;;;5036688;28;20241;-81
2024/01/08 02:52:53;;;;;;;18.10;3.67;;;0.00;1.00;;;;;;5036237;28;20166;-81
2024/01/08 02:55:19;;;;;;;20.37;4.57;;;0.10;1.00;;;;;;5018237;28;20173;-82
2024/01/08 02:57:45;;;;;;;17.80;3.87;;;0.00;1.00;;;;;;5036282;28;20193;-81
2024/01/08 03:00:11;;;;;;;19.67;3.93;;;0.00;1.00;;;;;;5036148;28;20415;-82
2024/01/08 03:02:39;;;;;;;17.55;4.20;;;-0.10;1.00;;;;;;5018380;28;20232;-81
2024/01/08 03:05:05;;;;;;;18.60;3.65;;;0.00;1.00;;;;;;5018589;28;20205;-82
2024/01/08 03:07:31;;;;;;;18.30;3.78;;;0.00;1.00;;;;;;5036728;28;20247;-81
2024/01/08 03:09:58;;;;;;;18.13;4.07;;;0.10;1.00;;;;;;5036924;28;20174;-82
2024/01/08 03:12:24;;;;;;;22.48;4.10;;;0.10;1.00;;;;;;5018095;28;20566;-82
2024/01/08 03:14:50;;;;;;;18.45;3.90;;;0.20;1.00;;;;;;5036001;28;20359;-80
2024/01/08 03:17:16;;;;;;;21.88;4.65;;;0.20;1.00;;;;;;5036318;28;20213;-82
2024/01/08 03:19:41;;;;;;;18.47;3.80;;;0.20;1.00;;;;;;5035721;28;20170;-81
2024/01/08 03:22:07;;;;;;;20.37;3.80;;;0.10;1.00;;;;;;5035987;28;20166;-81
2024/01/08 03:24:34;;;;;;;19.60;4.90;;;0.00;1.00;;;;;;5035623;28;20219;-80
2024/01/08 03:27:00;;;;;;;18.27;4.10;;;0.00;1.00;;;;;;5035881;28;20190;-81
2024/01/08 03:29:26;;;;;;;18.47;3.67;;;0.00;1.00;;;;;;5036054;28;20169;-81
2024/01/08 03:31:51;;;;;;;18.40;4.10;;;-0.10;1.00;;;;;;5017813;28;20170;-81
2024/01/08 03:34:17;;;;;;;19.77;4.63;;;-0.10;1.00;;;;;;5035659;28;20400;-82
2024/01/08 03:36:49;;;;;;;18.60;4.17;;;0.00;1.00;;;;;;5035441;28;20238;-81
2024/01/08 03:39:18;;;;;;;21.25;4.38;;;0.00;1.00;;;;;;5017718;28;20180;-81
2024/01/08 03:41:44;;;;;;;20.08;4.32;;;0.00;1.00;;;;;;5035399;28;20162;-81
2024/01/08 03:44:10;;;;;;;19.73;4.60;;;0.00;1.00;;;;;;5035550;28;20170;-81
2024/01/08 03:46:37;;;;;;;20.20;4.60;;;0.00;1.00;;;;;;5035445;28;20460;-82
2024/01/08 03:49:03;;;;;;;24.52;4.60;;;0.00;1.00;;;;;;5034665;28;20248;-81
2024/01/08 03:51:30;;;;;;;20.48;4.60;;;0.00;1.00;;;;;;5017888;28;20166;-81
2024/01/08 03:53:55;;;;;;;19.10;4.50;;;0.00;1.00;;;;;;5035437;28;20209;-81
2024/01/08 03:56:21;;;;;;;20.97;5.07;;;0.00;1.00;;;;;;5035054;28;20193;-82
2024/01/08 03:58:47;;;;;;;20.17;5.27;;;0.10;1.00;;;;;;5035048;28;20170;-82
2024/01/08 04:01:13;;;;;;;19.20;4.30;;;0.10;1.00;;;;;;5017561;28;20539;-82
2024/01/08 04:03:38;;;;;;;20.33;4.80;;;0.10;1.00;;;;;;5035505;28;20192;-80
2024/01/08 04:06:04;;;;;;;19.20;5.20;;;0.10;1.00;;;;;;5035086;28;20204;-80
2024/01/08 04:08:30;;;;;;;23.50;5.13;;;0.10;1.00;;;;;;5035936;28;20162;-80
2024/01/08 04:10:56;;;;;;;19.73;5.10;;;0.00;1.00;;;;;;5017559;28;20845;-81
2024/01/08 04:13:21;;;;;;;23.90;5.57;;;0.00;1.00;;;;;;5035251;28;20424;-82
2024/01/08 04:15:47;;;;;;;20.07;5.47;;;0.00;1.00;;;;;;5035278;28;20288;-82
2024/01/08 04:18:13;;;;;;;22.13;5.20;;;-0.10;1.00;;;;;;5035016;28;20173;-82
2024/01/08 04:20:39;;;;;;;20.20;5.13;;;0.00;1.00;;;;;;5035344;28;20170;-82
2024/01/08 04:23:05;;;;;;;20.05;5.35;;;0.00;1.00;;;;;;5017495;28;20518;-80
2024/01/08 04:25:31;;;;;;;19.70;5.63;;;0.00;1.00;;;;;;5034696;28;20190;-80
2024/01/08 04:27:57;;;;;;;21.10;5.10;;;0.00;1.00;;;;;;5035010;28;20161;-81
2024/01/08 04:30:22;;;;;;;21.63;5.60;;;0.00;1.00;;;;;;5017086;28;20224;-82
2024/01/08 04:32:48;;;;;;;23.70;6.37;;;-0.20;1.00;;;;;;5034755;28;20165;-81
2024/01/08 04:35:14;;;;;;;22.87;5.47;;;-0.20;1.00;;;;;;5034833;28;20212;-81
2024/01/08 04:37:40;;;;;;;22.03;5.73;;;-0.20;1.00;;;;;;5034686;28;20435;-81
2024/01/08 04:40:07;;;;;;;21.92;6.13;;;-0.20;1.00;;;;;;5034355;28;20407;-82
2024/01/08 04:42:33;;;;;;;21.25;5.75;;;-0.10;1.00;;;;;;5034732;28;20220;-81
2024/01/08 04:44:58;;;;;;;22.90;6.03;;;-0.20;1.00;;;;;;5034605;28;20189;-82
2024/01/08 04:47:24;;;;;;;23.40;6.30;;;-0.20;1.00;;;;;;5034569;28;20421;-81
2024/01/08 04:49:50;;;;;;;27.20;5.93;;;-0.20;1.00;;;;;;5034633;28;20531;-80
2024/01/08 04:52:15;;;;;;;20.87;5.20;;;-0.20;1.00;;;;;;5016950;28;20173;-81
2024/01/08 04:54:42;;;;;;;23.20;5.43;;;-0.20;1.00;;;;;;5034895;28;20173;-81
2024/01/08 04:57:08;;;;;;;23.73;7.07;;;-0.10;1.00;;;;;;5034414;28;20182;-82
2024/01/08 04:59:40;;;;;;;22.85;6.40;;;-0.20;1.00;;;;;;5034331;28;20166;-82
2024/01/08 05:02:05;;;;;;;22.90;6.65;;;-0.20;1.00;;;;;;5038217;28;20174;-82
2024/01/08 05:04:31;;;;;;;21.60;5.77;;;-0.20;1.00;;;;;;5038211;28;21081;-80
2024/01/08 05:06:57;;;;;;;20.10;5.77;;;-0.10;1.00;;;;;;5038298;28;20206;-81
2024/01/08 05:09:22;;;;;;;20.73;5.97;;;-0.20;1.00;;;;;;5020540;28;20248;-81
2024/01/08 05:11:48;;;;;;;25.47;7.07;;;-0.20;1.00;;;;;;5038563;28;20558;-81
2024/01/08 05:14:13;;;;;;;23.57;5.70;;;-0.20;1.00;;;;;;5038045;28;20634;-82
2024/01/08 05:16:39;;;;;;;23.07;7.17;;;-0.20;1.00;;;;;;5020038;28;20217;-81
2024/01/08 05:19:05;;;;;;;25.60;8.00;;;-0.10;1.00;;;;;;5038082;28;20169;-81
2024/01/08 05:21:31;;;;;;;24.07;7.23;;;-0.20;1.00;;;;;;5037898;28;20244;-80
2024/01/08 05:23:56;;;;;;;24.83;8.40;;;-0.20;1.00;;;;;;5037925;28;20166;-81
2024/01/08 05:26:22;;;;;;;22.20;6.73;;;-0.20;1.00;;;;;;5037917;28;20482;-81
2024/01/08 05:28:48;;;;;;;23.90;6.60;;;-0.20;1.00;;;;;;5020202;28;20654;-81
2024/01/08 05:31:13;;;;;;;22.93;6.90;;;-0.30;1.00;;;;;;5037977;28;20168;-81
2024/01/08 05:33:39;;;;;;;25.50;6.90;;;-0.20;1.00;;;;;;5037609;28;20177;-80
2024/01/08 05:36:06;;;;;;;25.83;6.57;;;-0.30;1.00;;;;;;5037684;28;20216;-82
2024/01/08 05:38:31;;;;;;;29.10;7.97;;;-0.30;1.00;;;;;;5020748;28;20182;-81
2024/01/08 05:40:57;;;;;;;26.80;6.17;;;-0.30;1.00;;;;;;5020119;28;20705;-81
2024/01/08 05:43:23;;;;;;;23.17;7.80;;;-0.30;1.00;;;;;;5037402;28;20170;-81
2024/01/08 05:45:49;;;;;;;22.57;7.07;;;-0.30;1.00;;;;;;5037479;28;20742;-82
2024/01/08 05:48:15;;;;;;;24.08;7.15;;;-0.30;1.00;;;;;;5037682;28;20162;-81
2024/01/08 05:50:41;;;;;;;24.00;7.83;;;-0.30;1.00;;;;;;5037188;28;20177;-81
2024/01/08 05:53:06;;;;;;;26.03;8.10;;;-0.30;1.00;;;;;;5037259;28;20203;-81
2024/01/08 05:55:32;;;;;;;23.80;8.03;;;-0.30;1.00;;;;;;5019776;28;20773;-82
2024/01/08 05:57:58;;;;;;;24.00;7.60;;;-0.40;1.00;;;;;;5019279;28;20166;-81
2024/01/08 06:00:23;;;;;;;24.90;7.83;;;-0.30;1.00;;;;;;5037308;28;20162;-80
2024/01/08 06:02:49;;;;;;;27.43;8.43;;;-0.30;1.00;;;;;;5037102;28;20788;-81
2024/01/08 06:05:15;;;;;;;28.47;9.13;;;-0.20;1.00;;;;;;5037110;28;20693;-81
2024/01/08 06:07:41;;;;;;;25.10;9.00;;;-0.30;1.00;;;;;;5037063;28;20190;-81
2024/01/08 06:10:07;;;;;;;24.92;8.70;;;-0.30;1.00;;;;;;5037052;28;20168;-81
2024/01/08 06:12:33;;;;;;;25.60;8.13;;;-0.30;1.00;;;;;;5018082;28;20190;-81
2024/01/08 06:14:58;;;;;;;25.87;9.60;;;-0.30;1.00;;;;;;5037069;28;20535;-82
2024/01/08 06:17:24;;;;;;;31.67;10.80;;;-0.30;1.00;;;;;;5036845;28;20558;-82
2024/01/08 06:19:49;;;;;;;26.83;10.10;;;-0.30;1.00;;;;;;5019108;28;20578;-81
2024/01/08 06:22:15;;;;;;;27.20;8.67;;;-0.20;1.00;;;;;;5036666;28;20218;-80
2024/01/08 06:24:41;;;;;;;25.00;8.30;;;-0.10;1.00;;;;;;5018834;28;20166;-80
2024/01/08 06:27:07;;;;;;;33.53;9.75;;;-0.10;1.00;;;;;;5036934;28;20413;-80
2024/01/08 06:29:33;;;;;;;27.60;9.00;;;-0.10;1.00;;;;;;5018974;28;20177;-80
2024/01/08 06:31:59;;;;;;;25.67;9.60;;;-0.10;1.00;;;;;;5037264;28;20166;-82
2024/01/08 06:34:25;;;;;;;24.13;8.32;;;-0.10;1.00;;;;;;5037176;28;20162;-82
2024/01/08 06:36:51;;;;;;;25.97;8.17;;;-0.10;1.00;;;;;;5037402;28;20197;-81
2024/01/08 06:39:17;;;;;;;25.83;8.20;;;-0.20;1.00;;;;;;5037137;28;20388;-81
2024/01/08 06:41:43;;;;;;;26.25;7.60;;;-0.20;1.00;;;;;;5036644;28;20924;-81
2024/01/08 06:44:08;;;;;;;22.70;7.87;;;-0.20;1.00;;;;;;5036944;28;20173;-81
2024/01/08 06:46:34;;;;;;;24.03;7.23;;;-0.20;1.00;;;;;;5036830;28;20204;-82
2024/01/08 06:49:00;;;;;;;23.93;7.40;;;-0.20;1.00;;;;;;5037000;28;20416;-81
2024/01/08 06:51:25;;;;;;;22.00;6.03;;;-0.10;1.00;;;;;;5019124;28;20196;-81
2024/01/08 06:53:51;;;;;;;26.60;7.40;;;-0.10;1.00;;;;;;5036454;28;20174;-81
2024/01/08 06:56:17;;;;;;;22.20;6.50;;;-0.10;1.00;;;;;;5036676;28;20197;-82
2024/01/08 06:58:42;;;;;;;25.37;7.13;;;-0.20;1.00;;;;;;5037310;28;20176;-82
2024/01/08 07:01:08;;;;;;;23.90;5.60;;;-0.20;1.00;;;;;;5036768;28;20249;-81
2024/01/08 07:03:35;;;;;;;20.20;5.60;;;-0.20;1.00;;;;;;5037103;28;20232;-81
2024/01/08 07:06:02;;;;;;;21.70;6.22;;;-0.10;1.00;;;;;;5036728;28;20214;-82
2024/01/08 07:08:30;;;;;;;24.20;6.35;;;-0.20;1.00;;;;;;5037029;28;20557;-81
2024/01/08 07:10:56;;;;;;;22.80;6.25;;;-0.20;1.00;;;;;;5037493;28;20166;-81
2024/01/08 07:13:22;;;;;;;26.33;7.03;;;-0.30;1.00;;;;;;5036827;28;20541;-82
2024/01/08 07:15:48;;;;;;;22.87;5.50;;;-0.30;1.00;;;;;;5036387;28;20166;-82
2024/01/08 07:18:16;;;;;;;19.80;4.60;;;-0.30;1.00;;;;;;5037306;28;20173;-82
2024/01/08 07:20:42;;;;;;;21.52;5.22;;;-0.30;1.00;;;;;;5019407;28;20675;-82
2024/01/08 07:23:13;;;;;;;20.55;5.55;;;-0.20;1.00;;;;;;5036063;28;20636;-80
2024/01/08 07:25:39;;;;;;;22.17;4.80;;;-0.20;1.00;;;;;;5035725;28;20577;-81
2024/01/08 07:28:09;;;;;;;21.20;5.40;;;-0.20;1.00;;;;;;5035816;28;20192;-81
2024/01/08 07:30:37;;;;;;;21.85;5.85;;;-0.20;1.00;;;;;;5035369;28;20249;-81
2024/01/08 07:33:03;;;;;;;21.60;5.20;;;-0.20;1.00;;;;;;5036104;28;20702;-81
2024/01/08 07:35:29;;;;;;;21.80;5.95;;;-0.20;1.00;;;;;;5017793;28;20204;-82
2024/01/08 07:37:55;;;;;;;20.00;4.77;;;-0.10;1.00;;;;;;5035813;28;20169;-82
2024/01/08 07:40:23;;;;;;;20.42;5.30;;;-0.10;1.00;;;;;;5035866;28;20219;-81
2024/01/08 07:42:48;;;;;;;20.75;4.40;;;-0.10;1.00;;;;;;5018074;28;20653;-82
2024/01/08 07:45:14;;;;;;;20.60;5.43;;;-0.10;1.00;;;;;;5036292;28;20276;-82
2024/01/08 07:47:40;;;;;;;19.60;5.10;;;-0.10;1.00;;;;;;5018221;28;20192;-82
2024/01/08 07:50:07;;;;;;;20.77;5.57;;;-0.10;1.00;;;;;;5035699;28;20169;-81
2024/01/08 07:52:33;;;;;;;20.52;4.50;;;-0.10;1.00;;;;;;5035740;28;20601;-81
2024/01/08 07:54:58;;;;;;;19.73;4.87;;;-0.10;1.00;;;;;;5035725;28;20175;-83
2024/01/08 07:57:24;;;;;;;19.60;4.30;;;0.00;1.00;;;;;;5035588;28;20186;-82
2024/01/08 07:59:50;;;;;;;19.83;5.63;;;-0.10;1.00;;;;;;5035420;28;20248;-82
2024/01/08 08:02:15;;;;;;;19.40;4.93;;;0.00;1.00;;;;;;5035759;28;20162;-82
2024/01/08 08:04:41;;;;;;;19.33;4.73;;;-0.10;1.00;;;;;;5017650;28;20177;-81
2024/01/08 08:07:07;;;;;;;18.23;3.90;;;0.00;1.00;;;;;;5035536;28;20224;-81
2024/01/08 08:09:32;;;;;;;18.70;4.20;;;0.00;1.00;;;;;;5035258;28;20154;-82
2024/01/08 08:11:58;;;;;;;18.10;4.20;;;-0.10;1.00;;;;;;5035246;28;20440;-82
2024/01/08 08:14:26;;;;;;;20.17;4.13;;;-0.20;1.00;;;;;;5035026;28;20165;-81
2024/01/08 08:16:52;;;;;;;19.27;4.25;;;-0.30;1.00;;;;;;5035516;28;20214;-82
2024/01/08 08:19:18;;;;;;;18.23;3.78;;;-0.20;1.00;;;;;;5035469;28;20158;-81
2024/01/08 08:21:44;;;;;;;21.17;4.40;;;-0.20;1.00;;;;;;5035191;28;20653;-81
2024/01/08 08:24:10;;;;;;;18.13;4.10;;;-0.20;1.00;;;;;;5035103;28;20156;-82
2024/01/08 08:26:35;;;;;;;19.00;3.97;;;-0.20;1.00;;;;;;5035083;28;20666;-82
2024/01/08 08:29:01;;;;;;;21.13;4.10;;;-0.20;1.00;;;;;;5035719;28;20153;-82
2024/01/08 08:31:27;;;;;;;20.50;4.30;;;-0.10;1.00;;;;;;5035440;28;20182;-81
2024/01/08 08:33:52;;;;;;;17.53;3.93;;;-0.10;1.00;;;;;;5035392;28;20172;-81
2024/01/08 08:36:18;;;;;;;19.97;4.17;;;-0.20;1.00;;;;;;5037208;28;20264;-81
2024/01/08 08:38:43;;;;;;;19.17;4.50;;;-0.30;1.00;;;;;;5021303;28;20180;-82
2024/01/08 08:41:09;;;;;;;21.53;3.60;;;-0.20;1.00;;;;;;5038932;28;20176;-82
2024/01/08 08:43:36;;;;;;;20.33;4.90;;;-0.20;1.00;;;;;;5021230;28;20255;-81
2024/01/08 08:46:02;;;;;;;20.08;4.22;;;-0.20;1.00;;;;;;5038653;28;20674;-83
2024/01/08 08:48:28;;;;;;;18.08;3.33;;;-0.10;1.00;;;;;;5021229;28;20204;-82
2024/01/08 08:50:54;;;;;;;18.13;3.70;;;0.00;1.00;;;;;;5021087;28;20194;-82
2024/01/08 08:53:19;;;;;;;18.50;3.27;;;0.00;1.00;;;;;;5039343;28;20162;-82
2024/01/08 08:55:45;;;;;;;19.27;3.87;;;0.20;1.00;;;;;;5038890;28;20166;-82
2024/01/08 08:58:11;;;;;;;17.73;3.30;;;0.20;1.00;;;;;;5038847;28;20166;-82
2024/01/08 09:00:37;;;;;;;20.07;3.93;;;0.10;1.00;;;;;;5038715;28;20542;-83
2024/01/08 09:03:03;;;;;;;18.20;4.27;;;0.20;1.00;;;;;;5038794;28;20537;-82
2024/01/08 09:05:29;;;;;;;18.48;3.55;;;0.20;1.00;;;;;;5039537;28;20448;-82
2024/01/08 09:07:55;;;;;;;17.75;3.78;;;0.10;1.00;;;;;;5038671;28;20236;-82
2024/01/08 09:10:20;;;;;;;17.50;4.00;;;0.10;1.00;;;;;;5039521;28;20193;-82
2024/01/08 09:12:46;;;;;;;19.47;4.40;;;0.20;1.00;;;;;;5040350;28;20193;-81
2024/01/08 09:15:12;;;;;;;17.07;2.67;;;0.20;1.00;;;;;;5022113;28;20161;-80
2024/01/08 09:17:38;;;;;;;18.23;3.63;;;0.10;1.00;;;;;;5039173;28;20316;-82
2024/01/08 09:20:14;;;;;;;18.50;3.30;;;0.10;1.00;;;;;;5039128;28;20260;-82
2024/01/08 09:22:40;;;;;;;17.98;3.55;;;0.20;1.00;;;;;;5038652;28;20157;-81
2024/01/08 09:25:06;;;;;;;16.97;3.30;;;0.20;1.00;;;;;;5038601;28;20170;-82
2024/01/08 09:27:32;;;;;;;22.65;3.90;;;0.30;1.00;;;;;;5039823;28;20189;-83
2024/01/08 09:29:58;;;;;;;20.25;4.68;;;0.40;1.00;;;;;;5020950;28;20158;-82
2024/01/08 09:32:24;;;;;;;19.93;5.00;;;0.50;1.00;;;;;;5039336;28;20519;-81
2024/01/08 09:34:51;;;;;;;21.50;3.92;;;0.40;1.00;;;;;;5039581;28;20150;-82
2024/01/08 09:37:17;;;;;;;20.40;5.45;;;0.50;1.00;;;;;;5021292;28;20221;-82
2024/01/08 09:39:43;;;;;;;18.60;4.00;;;0.40;1.00;;;;;;5038918;28;20158;-82
2024/01/08 09:42:11;;;;;;;19.23;4.20;;;0.30;1.00;;;;;;5038916;28;20400;-82
2024/01/08 09:44:38;;;;;;;18.45;4.30;;;0.40;1.00;;;;;;5038615;28;20170;-82
2024/01/08 09:47:05;;;;;;;19.52;4.60;;;0.40;1.00;;;;;;5036502;28;20323;-82
2024/01/08 09:49:32;;;;;;;19.92;4.28;;;0.40;1.00;;;;;;5037915;28;20172;-82
2024/01/08 09:52:01;;;;;;;23.25;5.80;;;0.40;1.00;;;;;;5037806;28;20186;-82
2024/01/08 09:54:29;;;;;;;19.75;4.55;;;0.30;1.00;;;;;;5038136;28;20573;-82
2024/01/08 09:56:58;;;;;;;21.10;5.35;;;0.20;1.00;;;;;;5038105;28;20583;-82
2024/01/08 09:59:27;;;;;;;21.52;4.50;;;0.10;1.00;;;;;;5038096;28;20169;-81
2024/01/08 10:01:54;;;;;;;18.42;4.38;;;0.20;1.00;;;;;;5038667;28;20206;-81
2024/01/08 10:04:21;;;;;;;20.52;4.40;;;0.20;1.00;;;;;;5037631;28;20170;-82
2024/01/08 10:06:47;;;;;;;19.92;4.00;;;0.30;1.00;;;;;;5037477;28;20194;-82
2024/01/08 10:09:13;;;;;;;19.70;5.00;;;0.20;1.00;;;;;;5037805;28;20632;-81
2024/01/08 10:11:39;;;;;;;20.60;4.93;;;0.20;1.00;;;;;;5038202;28;20377;-82
2024/01/08 10:14:07;;;;;;;18.65;4.25;;;0.30;1.00;;;;;;5038116;28;20150;-82
2024/01/08 10:16:33;;;;;;;20.83;4.00;;;0.40;1.00;;;;;;5037044;28;20213;-82
2024/01/08 10:18:59;;;;;;;20.80;5.00;;;0.30;1.00;;;;;;5037439;28;20224;-82
2024/01/08 10:21:25;;;;;;;19.77;5.13;;;0.40;1.00;;;;;;5037449;28;20245;-81
2024/01/08 10:23:50;;;;;;;21.17;4.57;;;0.60;1.00;;;;;;5038019;28;20188;-82
2024/01/08 10:26:17;;;;;;;22.43;4.77;;;0.90;1.00;;;;;;5037391;28;20530;-81
2024/01/08 10:28:45;;;;;;;21.05;4.45;;;1.10;1.00;;;;;;5037438;28;20142;-83
2024/01/08 10:31:12;;;;;;;19.08;4.88;;;1.20;1.00;;;;;;5019752;28;20222;-82
2024/01/08 10:33:38;;;;;;;18.95;4.45;;;1.20;1.00;;;;;;5038491;28;20166;-83
2024/01/08 10:36:04;;;;;;;21.35;4.85;;;1.30;1.00;;;;;;5038285;28;20209;-82
2024/01/08 10:38:34;;;;;;;19.92;3.53;;;1.20;1.00;;;;;;5038254;28;20151;-82
2024/01/08 10:41:03;;;;;;;19.55;4.80;;;1.20;1.00;;;;;;5038120;28;20157;-82
2024/01/08 10:43:29;;;;;;;18.65;4.30;;;1.10;1.00;;;;;;5038866;28;20142;-81
2024/01/08 10:45:59;;;;;;;18.60;4.00;;;0.90;1.00;;;;;;5038177;28;20196;-81
2024/01/08 10:48:48;;;;;;;21.40;4.28;;;0.90;1.00;;;;;;5021184;28;20488;-83
2024/01/08 10:51:16;;;;;;;19.17;3.95;;;0.90;1.00;;;;;;5038590;28;20177;-81
2024/01/08 10:53:53;;;;;;;17.90;4.25;;;0.80;1.00;;;;;;5037126;28;20170;-82
2024/01/08 10:56:24;;;;;;;18.83;4.72;;;0.80;1.00;;;;;;5037169;28;20186;-82
2024/01/08 10:59:06;;;;;;;19.20;4.50;;;0.90;1.00;;;;;;5019649;28;20162;-82
2024/01/08 11:01:32;;;;;;;18.30;4.22;;;1.00;1.00;;;;;;5020267;28;20599;-83
2024/01/08 11:04:03;;;;;;;18.27;4.00;;;1.20;1.00;;;;;;5019376;28;20181;-80
2024/01/08 11:06:30;;;;;;;18.95;3.58;;;1.30;1.00;;;;;;5037575;28;20252;-83
2024/01/08 11:08:57;;;;;;;18.15;4.18;;;1.40;1.00;;;;;;5037641;28;20161;-82
2024/01/08 11:11:23;;;;;;;18.50;4.25;;;1.10;1.00;;;;;;5019153;28;20166;-82
2024/01/08 11:13:49;;;;;;;19.60;4.43;;;1.00;1.00;;;;;;5019904;28;20551;-81
2024/01/08 11:16:27;;;;;;;18.08;3.60;;;1.10;1.00;;;;;;5019290;28;20193;-82
2024/01/08 11:19:19;;;;;;;23.55;5.55;;;1.10;1.00;;;;;;5037485;28;20149;-83
2024/01/08 11:21:57;;;;;;;19.90;4.40;;;0.90;1.00;;;;;;5037480;28;20256;-82
2024/01/08 11:24:24;;;;;;;21.25;4.55;;;0.70;1.00;;;;;;5037551;28;20150;-82
2024/01/08 11:26:51;;;;;;;18.65;3.58;;;0.70;1.00;;;;;;5019618;28;20209;-81
2024/01/08 11:29:18;;;;;;;18.42;3.95;;;0.70;1.00;;;;;;5036636;28;20161;-83
2024/01/08 11:31:50;;;;;;;20.92;4.75;;;0.90;1.00;;;;;;5019892;28;20172;-82
2024/01/08 11:34:43;;;;;;;17.80;3.72;;;1.00;1.00;;;;;;5038580;28;20158;-82
2024/01/08 11:37:15;;;;;;;19.92;4.20;;;1.00;1.00;;;;;;5038308;28;20548;-82
2024/01/08 11:39:41;;;;;;;17.80;3.75;;;1.00;1.00;;;;;;5019571;28;20173;-82
2024/01/08 11:42:07;;;;;;;20.00;4.65;;;1.10;1.00;;;;;;5036707;28;20170;-83
2024/01/08 11:44:33;;;;;;;17.83;4.00;;;1.10;1.00;;;;;;5037153;28;20169;-83
2024/01/08 11:46:59;;;;;;;19.55;3.60;;;1.10;1.00;;;;;;5018278;28;20456;-82
2024/01/08 11:49:25;;;;;;;20.13;3.77;;;1.10;1.00;;;;;;5018747;28;20161;-82
2024/01/08 11:51:55;;;;;;;22.40;4.23;;;1.10;1.00;;;;;;5019072;28;20176;-82
2024/01/08 11:54:21;;;;;;;18.45;3.92;;;1.10;1.00;;;;;;5036566;28;20385;-82
2024/01/08 11:56:47;;;;;;;19.70;4.60;;;1.20;1.00;;;;;;5036840;28;20244;-82
2024/01/08 11:59:28;;;;;;;17.27;3.27;;;1.00;1.00;;;;;;5036085;28;20404;-81
2024/01/08 12:01:53;;;;;;;18.98;4.10;;;0.90;1.00;;;;;;5037126;28;20224;-83
2024/01/08 12:04:19;;;;;;;20.87;4.50;;;0.70;1.00;;;;;;5019827;28;20256;-81
2024/01/08 12:06:45;;;;;;;18.93;3.43;;;0.70;1.00;;;;;;5037823;28;20193;-82
2024/01/08 12:09:10;;;;;;;19.63;4.23;;;0.90;1.00;;;;;;5038650;28;20162;-82
2024/01/08 12:11:36;;;;;;;17.00;2.70;;;0.90;1.00;;;;;;5037408;28;20161;-81
2024/01/08 12:14:03;;;;;;;21.20;3.72;;;0.50;1.00;;;;;;5037597;28;20158;-82
2024/01/08 12:16:29;;;;;;;18.98;4.10;;;0.40;1.00;;;;;;5037271;28;20269;-81
2024/01/08 12:18:55;;;;;;;17.92;3.88;;;0.50;1.00;;;;;;5019907;28;20595;-81
2024/01/08 12:21:21;;;;;;;18.57;3.40;;;0.60;1.00;;;;;;5038018;28;20166;-82
2024/01/08 12:23:47;;;;;;;17.08;2.70;;;0.40;1.00;;;;;;5038344;28;20577;-82
2024/01/08 12:26:13;;;;;;;17.47;3.17;;;0.30;1.00;;;;;;5037909;28;20281;-82
2024/01/08 12:28:39;;;;;;;19.23;3.80;;;0.30;1.00;;;;;;5018954;28;20170;-82
2024/01/08 12:31:06;;;;;;;17.33;2.60;;;0.30;1.00;;;;;;5036369;28;20539;-82
2024/01/08 12:33:32;;;;;;;18.65;3.50;;;0.30;1.00;;;;;;5036876;28;20902;-82
2024/01/08 12:35:58;;;;;;;18.30;3.22;;;0.30;1.00;;;;;;5036362;28;20186;-81
2024/01/08 12:38:23;;;;;;;17.50;3.13;;;0.30;1.00;;;;;;5018803;28;20179;-81
2024/01/08 12:40:53;;;;;;;27.17;7.23;;;0.20;1.00;;;;;;5037805;28;20274;-81
2024/01/08 12:43:19;;;;;;;17.10;3.08;;;0.20;1.00;;;;;;5037529;28;20180;-81
2024/01/08 12:45:49;;;;;;;16.98;3.20;;;0.30;1.00;;;;;;5036930;28;20186;-81
2024/01/08 12:48:17;;;;;;;17.38;3.42;;;0.30;1.00;;;;;;5036960;28;20196;-82